Архив погоды в Волжской ГМО

Метеограмма Волжская ГМО
Вторник, 25 Июня
Время местн. Темп Ветер Видим Явления Облачность нижн/средн/верх Атм. давл. Влжн Точка росы ВНГО R Сост. почвы Tg s
Напр Скр Прв ур.ст ур.м изм
06:00 +13.8° С,С-З 1 2 50 км - незначительная облачность 759 768 +0.6 80% +10.4° более 2.5 км - Влажная (без луж) - -
03:00 +13.5° С,С-В 2 2 10 км - незначительная облачность 758 767 +0.6 73% +8.8° - - - - -
00:00 +15.7° С 1 4 10 км - незначительная облачность 757 767 +0.5 58% +7.4° - - - - -
Понедельник, 24 Июня
Время местн. Темп Ветер Видим Явления Облачность нижн/средн/верх Атм. давл. Влжн Точка росы ВНГО R Сост. почвы Tg s
Напр Скр Прв ур.ст ур.м изм
21:00 +19.1° С 1 2 10 км - незначительная облачность 757 766 +0.8 42% +5.9° - - - - -
18:00 +23° С 2 5 50 км - преимущественно облачно 756 765 +0.4 31% +5° 600 м - - - -
15:00 +23.2° Ю-З 2 7 50 км - облачно с прояснениями 756 765 -0.2 30% +4.6° 600 м - - - -
12:00 +23.2° З 1 3 50 км - переменная облачность 756 765 -0.3 33% +6.2° 600 м - - - -
09:00 +20° С,С-В 2 3 50 км - преимущественно облачно 756 765 +0.2 57% +11.1° - - - - -
06:00 +17.9° С,С-В 1 2 20 км - облачно 756 765 +0.6 64% +10.9° 1 км - Сухая (без трещин) - -
03:00 +14.8° штиль 0 0 10 км - облачно с прояснениями 756 765 0 65% +8.2° - - - - -
00:00 +16.2° С 1 2 10 км - переменная облачность 756 765 +0.8 56% +7.4° - - - - -
Воскресенье, 23 Июня
Время местн. Темп Ветер Видим Явления Облачность нижн/средн/верх Атм. давл. Влжн Точка росы ВНГО R Сост. почвы Tg s
Напр Скр Прв ур.ст ур.м изм
21:00 +20.5° С 1 2 20 км - переменная облачность 755 764 +0.6 45% +8.2° - - - - -
18:00 +26.5° С-З 2 4 50 км - облачно с прояснениями 754 763 -0.3 35% +10° более 2.5 км - - - -
15:00 +27.1° С-З 1 2 50 км - облачно с прояснениями 754 763 0 42% +13° 1 км - - - -
12:00 +26.3° С-З 2 4 50 км - переменная облачность 754 763 +0.1 51% +15.3° 1 км - - - -
09:00 +23.2° С-З 2 3 50 км - облачно с прояснениями 754 763 +0.8 67% +16.7° - - - - -
06:00 +21.5° С 1 2 20 км - преимущественно облачно 754 763 +1 75% +16.9° 600 м - Сухая (без трещин) - -
03:00 +21.8° З,С-З 1 2 10 км небо без изменений {ливневые осадки} облачно с прояснениями 753 762 +0.8 69% +15.9° 600 м - - - -
00:00 +23.6° штиль 0 1 10 км ливневый дождь облачно с прояснениями 752 761 +0.6 65% +16.6° 600 м - - - -
Суббота, 22 Июня
Время местн. Темп Ветер Видим Явления Облачность нижн/средн/верх Атм. давл. Влжн Точка росы ВНГО R Сост. почвы Tg s
Напр Скр Прв ур.ст ур.м изм
21:00 +26.6° штиль 0 0 20 км - облачно с прояснениями 751 760 +0.3 59% +17.9° 600 м - - - -
18:00 +29.3° З 1 5 20 км - переменная облачность 751 760 -0.9 53% +18.8° 600 м - - - -
15:00 +31.1° штиль 0 1 20 км - облачно с прояснениями 752 760 -0.8 44% +17.3° 600 м - - - -
12:00 +27.8° штиль 0 1 20 км - облачно 753 761 -0.5 51% +16.8° 600 м - - - -
09:00 +23.6° З 1 1 20 км - преимущественно облачно 753 762 -0.4 58% +14.9° 600 м - - - -
06:00 +20.8° Ю-В 1 1 50 км - преимущественно облачно 753 762 -0.1 68% +14.7° - - Влажная (без луж) - -
03:00 +20.2° Ю,Ю-З 1 2 10 км - преимущественно облачно 753 763 +0.1 67% +13.8° 600 м - - - -